createdAt,value
2024-04-18T00:01:01.777Z,94373.28
2024-04-18T00:03:48.759Z,94359.19
2024-04-18T00:06:35.358Z,94364.59
2024-04-18T00:09:35.606Z,94356.81
2024-04-18T00:12:23.094Z,94360.88
2024-04-18T00:15:10.004Z,94358.63
2024-04-18T00:17:57.580Z,94365.63
2024-04-18T00:20:45.735Z,94369.56
2024-04-18T00:23:55.313Z,94371.72
2024-04-18T00:27:01.805Z,94367.53
2024-04-18T00:29:57.315Z,94365.88
2024-04-18T00:32:43.759Z,94369.91
2024-04-18T00:35:48.993Z,94365.63
2024-04-18T00:38:35.279Z,94353.47
2024-04-18T00:41:21.504Z,94363.50
2024-04-18T00:44:16.868Z,94372.44
2024-04-18T00:47:03.731Z,94362.72
2024-04-18T00:49:52.938Z,94357.31
2024-04-18T00:52:57.927Z,94348.75
2024-04-18T00:55:47.687Z,94355.50
2024-04-18T00:58:34.328Z,94352.78
2024-04-18T01:01:38.240Z,94357.31
2024-04-18T01:04:24.913Z,94365.88
2024-04-18T01:07:30.341Z,94353.47
2024-04-18T01:10:36.524Z,94355.72
2024-04-18T01:13:23.750Z,94349.88
2024-04-18T01:16:28.953Z,94350.13
2024-04-18T01:19:20.148Z,94366.38
2024-04-18T01:22:06.455Z,94358.25
2024-04-18T01:24:52.672Z,94375.50
2024-04-18T01:27:39.067Z,94375.41
2024-04-18T01:30:25.418Z,94379.25
2024-04-18T01:33:27.221Z,94362.78
2024-04-18T01:36:13.820Z,94366.03
2024-04-18T01:39:10.198Z,94371.53
2024-04-18T01:41:56.554Z,94367.72
2024-04-18T01:45:01.431Z,94368.84
2024-04-18T01:47:57.116Z,94363.53
2024-04-18T01:51:00.057Z,94367.03
2024-04-18T01:53:52.388Z,94361.91
2024-04-18T01:56:41.923Z,94362.31
2024-04-18T01:59:41.308Z,94371.50
2024-04-18T02:02:27.911Z,94378.25
2024-04-18T02:05:29.720Z,94368.25
2024-04-18T02:08:33.279Z,94376.78
2024-04-18T02:11:37.790Z,94381.41
2024-04-18T02:14:31.338Z,94387.72
2024-04-18T02:17:17.707Z,94398.31
2024-04-18T02:20:21.957Z,94386.03
2024-04-18T02:23:08.292Z,94392.91
2024-04-18T02:26:09.881Z,94390.31
2024-04-18T02:28:56.387Z,94393.91
2024-04-18T02:31:46.322Z,94396.63
2024-04-18T02:34:49.765Z,94401.59
2024-04-18T02:37:45.403Z,94412.72
2024-04-18T02:40:31.796Z,94415.78
2024-04-18T02:43:21.204Z,94420.50
2024-04-18T02:46:07.535Z,94426.50
2024-04-18T02:48:53.980Z,94422.63
2024-04-18T02:51:43.379Z,94433.81
2024-04-18T02:54:32.929Z,94431.78
2024-04-18T02:57:19.137Z,94432.09
2024-04-18T03:00:07.385Z,94428.63
2024-04-18T03:02:54.043Z,94429.72
2024-04-18T03:05:40.383Z,94429.13
2024-04-18T03:08:26.569Z,94425.50
2024-04-18T03:11:14.047Z,94428.25
2024-04-18T03:14:20.656Z,94427.63
2024-04-18T03:17:25.218Z,94429.75
2024-04-18T03:20:23.750Z,94434.19
2024-04-18T03:23:30.120Z,94436.59
2024-04-18T03:26:22.358Z,94437.28
2024-04-18T03:29:08.833Z,94422.75
2024-04-18T03:32:16.848Z,94436.53
2024-04-18T03:35:04.797Z,94441.25
2024-04-18T03:37:51.032Z,94442.16
2024-04-18T03:40:57.429Z,94446.66
2024-04-18T03:43:43.588Z,94442.81
2024-04-18T03:46:30.122Z,94436.66
2024-04-18T03:49:19.713Z,94445.31
2024-04-18T03:52:06.339Z,94448.22
2024-04-18T03:55:01.240Z,94459.50
2024-04-18T03:58:01.242Z,94452.75
2024-04-18T04:01:06.634Z,94457.91
2024-04-18T04:03:54.379Z,94457.78
2024-04-18T04:06:57.990Z,94464.88
2024-04-18T04:09:44.239Z,94474.13
2024-04-18T04:12:30.708Z,94482.69
2024-04-18T04:15:27.515Z,94492.06
2024-04-18T04:18:24.925Z,94487.78
2024-04-18T04:21:31.212Z,94491.25
2024-04-18T04:24:18.203Z,94485.41
2024-04-18T04:27:10.405Z,94497.13
2024-04-18T04:29:57.335Z,94490.59
2024-04-18T04:32:44.901Z,94480.56
2024-04-18T04:35:51.251Z,94503.91
2024-04-18T04:38:40.083Z,94493.50
2024-04-18T04:41:27.458Z,94502.88
2024-04-18T04:44:13.898Z,94509.31
2024-04-18T04:47:09.423Z,94509.44
2024-04-18T04:50:07.839Z,94503.69
2024-04-18T04:52:57.303Z,94504.16
2024-04-18T04:55:43.593Z,94497.81
2024-04-18T04:58:30.084Z,94493.34
2024-04-18T05:01:16.423Z,94503.44
2024-04-18T05:04:03.522Z,94501.22
2024-04-18T05:06:50.060Z,94502.34
2024-04-18T05:09:36.535Z,94504.38
2024-04-18T05:12:22.795Z,94505.94
2024-04-18T05:15:10.075Z,94512.50
2024-04-18T05:18:16.535Z,94511.38
2024-04-18T05:21:02.935Z,94509.34
2024-04-18T05:23:49.151Z,94514.09
2024-04-18T05:26:36.018Z,94498.28
2024-04-18T05:29:42.327Z,94500.97
2024-04-18T05:32:28.724Z,94501.78
2024-04-18T05:35:30.525Z,94502.56
2024-04-18T05:38:16.754Z,94500.75
2024-04-18T05:41:05.409Z,94498.03
2024-04-18T05:44:12.074Z,94508.44
2024-04-18T05:46:58.464Z,94509.81
2024-04-18T05:49:45.454Z,94507.22
2024-04-18T05:52:31.732Z,94513.31
2024-04-18T05:55:38.187Z,94502.59
2024-04-18T05:58:24.701Z,94516.34
2024-04-18T06:01:14.627Z,94522.22
2024-04-18T06:04:01.532Z,94509.56
2024-04-18T06:06:49.752Z,94512.84
2024-04-18T06:09:39.393Z,94512.53
2024-04-18T06:12:25.907Z,94513.84
2024-04-18T06:15:12.637Z,94516.34
2024-04-18T06:17:59.055Z,94511.16
2024-04-18T06:20:47.086Z,94510.38
2024-04-18T06:23:33.259Z,94512.09
2024-04-18T06:26:37.856Z,94516.78
2024-04-18T06:29:24.526Z,94516.47
2024-04-18T06:32:10.914Z,94519.50
2024-04-18T06:34:57.363Z,94519.88
2024-04-18T06:37:43.906Z,94523.81
2024-04-18T06:40:30.826Z,94518.84
2024-04-18T06:43:17.174Z,94532.50
2024-04-18T06:46:03.602Z,94525.16
2024-04-18T06:48:50.103Z,94525.97
2024-04-18T06:51:36.590Z,94522.69
2024-04-18T06:54:23.112Z,94523.00
2024-04-18T06:57:09.299Z,94522.22
2024-04-18T06:59:55.769Z,94523.09
2024-04-18T07:02:42.352Z,94537.34
2024-04-18T07:05:47.267Z,94531.00
2024-04-18T07:08:42.677Z,94534.75
2024-04-18T07:11:48.977Z,94539.84
2024-04-18T07:14:35.480Z,94544.34
2024-04-18T07:17:30.920Z,94542.75
2024-04-18T07:20:23.327Z,94554.69
2024-04-18T07:23:24.944Z,94551.31
2024-04-18T07:26:22.009Z,94555.94
2024-04-18T07:29:08.502Z,94558.28
2024-04-18T07:31:54.959Z,94566.16
2024-04-18T07:34:41.246Z,94554.84
2024-04-18T07:37:32.354Z,94574.38
2024-04-18T07:40:22.604Z,94560.66
2024-04-18T07:43:09.099Z,94571.47
2024-04-18T07:45:55.546Z,94576.41
2024-04-18T07:48:42.088Z,94565.75
2024-04-18T07:51:28.770Z,94574.78
2024-04-18T07:54:16.068Z,94577.03
2024-04-18T07:57:02.932Z,94580.28
2024-04-18T07:59:50.416Z,94577.88
2024-04-18T08:02:38.755Z,94579.34
2024-04-18T08:05:28.175Z,94574.69
2024-04-18T08:08:17.812Z,94586.34
2024-04-18T08:14:04.929Z,94590.97
2024-04-18T08:16:53.989Z,94598.00
2024-04-18T08:19:40.227Z,94600.75
2024-04-18T08:22:26.665Z,94607.84
2024-04-18T08:25:13.061Z,94598.50
2024-04-18T08:27:59.441Z,94611.13
2024-04-18T08:30:47.026Z,94614.47
2024-04-18T08:33:33.218Z,94601.44
2024-04-18T08:36:19.470Z,94600.03
2024-04-18T08:39:06.054Z,94610.47
2024-04-18T08:41:53.281Z,94615.41
2024-04-18T08:44:39.555Z,94623.88
2024-04-18T08:47:29.667Z,94615.13
2024-04-18T08:50:16.568Z,94625.97
2024-04-18T08:53:03.700Z,94611.59
2024-04-18T08:55:53.403Z,94615.75
2024-04-18T08:58:39.887Z,94615.94
2024-04-18T09:01:26.533Z,94615.41
2024-04-18T09:04:12.958Z,94607.00
2024-04-18T09:06:59.320Z,94614.59
2024-04-18T09:09:45.991Z,94615.22
2024-04-18T09:12:32.726Z,94609.50
2024-04-18T09:15:19.236Z,94610.03
2024-04-18T09:18:07.509Z,94616.97
2024-04-18T09:20:53.618Z,94624.09
2024-04-18T09:23:42.010Z,94621.44
2024-04-18T09:26:31.570Z,94626.53
2024-04-18T09:29:18.493Z,94623.78
2024-04-18T09:32:05.283Z,94634.84
2024-04-18T09:34:52.786Z,94635.72
2024-04-18T09:37:46.999Z,94634.16
2024-04-18T09:40:44.492Z,94635.78
2024-04-18T09:44:02.888Z,94643.25
2024-04-18T09:46:51.964Z,94637.50
2024-04-18T09:49:38.855Z,94630.91
2024-04-18T09:52:26.783Z,94632.22
2024-04-18T09:55:15.337Z,94632.75
2024-04-18T09:58:01.524Z,94631.06
2024-04-18T10:00:49.031Z,94620.03
2024-04-18T10:03:35.342Z,94624.78
2024-04-18T10:06:24.753Z,94621.06
2024-04-18T10:09:13.456Z,94620.34
2024-04-18T10:12:01.004Z,94616.34
2024-04-18T10:14:47.300Z,94609.63
2024-04-18T10:17:34.207Z,94608.34
2024-04-18T10:20:20.486Z,94612.63
2024-04-18T10:23:06.934Z,94606.59
2024-04-18T10:26:00.276Z,94608.72
2024-04-18T10:28:48.318Z,94607.63
2024-04-18T10:31:39.902Z,94611.94
2024-04-18T10:34:28.069Z,94615.13
2024-04-18T10:37:21.539Z,94617.06
2024-04-18T10:40:08.947Z,94609.56
2024-04-18T10:43:17.528Z,94614.94
2024-04-18T10:46:16.674Z,94617.38
2024-04-18T10:49:03.539Z,94620.94
2024-04-18T10:51:51.657Z,94623.41
2024-04-18T10:54:38.084Z,94625.13
2024-04-18T10:57:24.448Z,94623.66
2024-04-18T11:00:17.696Z,94626.25
2024-04-18T11:03:04.150Z,94635.78
2024-04-18T11:05:51.489Z,94616.34
2024-04-18T11:08:42.052Z,94624.25
2024-04-18T11:11:33.412Z,94623.66
2024-04-18T11:14:20.042Z,94623.78
2024-04-18T11:17:07.593Z,94621.41
2024-04-18T11:19:53.678Z,94616.88
2024-04-18T11:22:40.814Z,94625.50
2024-04-18T11:25:28.115Z,94628.75
2024-04-18T11:28:23.406Z,94621.00
2024-04-18T11:31:09.705Z,94632.22
2024-04-18T11:33:57.750Z,94608.88
2024-04-18T11:36:44.845Z,94626.56
2024-04-18T11:39:31.674Z,94618.56
2024-04-18T11:42:17.995Z,94623.94
2024-04-18T11:45:04.825Z,94628.88
2024-04-18T11:48:00.148Z,94627.91
2024-04-18T11:50:46.555Z,94628.28
2024-04-18T11:53:33.116Z,94622.19
2024-04-18T11:56:19.125Z,94626.25
2024-04-18T11:59:05.519Z,94625.44
2024-04-18T12:01:52.496Z,94627.25
2024-04-18T12:04:41.926Z,94628.38
2024-04-18T12:07:35.254Z,94629.81
2024-04-18T12:10:21.813Z,94625.03
2024-04-18T12:13:22.371Z,94625.78
2024-04-18T12:16:12.806Z,94618.81
2024-04-18T12:18:58.988Z,94628.22
2024-04-18T12:21:45.492Z,94616.13
2024-04-18T12:24:31.862Z,94625.84
2024-04-18T12:27:27.358Z,94623.72
2024-04-18T12:30:13.626Z,94612.78
2024-04-18T12:33:00.063Z,94623.00
2024-04-18T12:35:49.069Z,94623.78
2024-04-18T12:38:35.383Z,94627.00
2024-04-18T12:41:21.892Z,94621.22
2024-04-18T12:44:08.277Z,94624.06
2024-04-18T12:47:07.618Z,94621.72
2024-04-18T12:50:05.695Z,94618.50
2024-04-18T12:52:52.073Z,94620.09
2024-04-18T12:55:38.402Z,94614.59
2024-04-18T12:58:25.156Z,94613.25
2024-04-18T13:01:25.915Z,94600.69
2024-04-18T13:04:13.526Z,94597.75
2024-04-18T13:07:07.222Z,94606.22
2024-04-18T13:09:55.391Z,94595.25
2024-04-18T13:12:41.966Z,94599.63
2024-04-18T13:15:50.660Z,94598.09
2024-04-18T13:18:38.994Z,94598.34
2024-04-18T13:21:25.425Z,94608.44
2024-04-18T13:24:14.131Z,94591.19
2024-04-18T13:27:23.184Z,94602.28
2024-04-18T13:30:12.944Z,94589.41
2024-04-18T13:32:59.994Z,94587.34
2024-04-18T13:35:47.178Z,94598.88
2024-04-18T13:38:34.018Z,94599.94
2024-04-18T13:41:21.890Z,94608.38
2024-04-18T13:44:08.305Z,94610.03
2024-04-18T13:47:00.794Z,94612.59
2024-04-18T13:49:59.346Z,94618.09
2024-04-18T13:52:46.857Z,94616.91
2024-04-18T13:55:33.238Z,94620.94
2024-04-18T13:58:21.479Z,94616.91
2024-04-18T14:01:17.234Z,94616.72
2024-04-18T14:04:21.009Z,94616.53
2024-04-18T14:07:07.537Z,94619.50
2024-04-18T14:09:56.028Z,94625.09
2024-04-18T14:13:02.551Z,94621.59
2024-04-18T14:16:25.781Z,94613.47
2024-04-18T14:19:17.004Z,94618.69
2024-04-18T14:22:03.256Z,94616.16
2024-04-18T14:24:49.618Z,94616.44
2024-04-18T14:27:51.979Z,94614.13
2024-04-18T14:30:56.680Z,94626.69
2024-04-18T14:33:43.362Z,94613.41
2024-04-18T14:36:30.123Z,94617.53
2024-04-18T14:39:16.544Z,94617.81
2024-04-18T14:42:03.372Z,94627.19
2024-04-18T14:44:50.036Z,94622.19
2024-04-18T14:47:40.614Z,94616.91
2024-04-18T14:50:27.070Z,94629.53
2024-04-18T14:53:43.799Z,94620.38
2024-04-18T14:56:31.407Z,94622.19
2024-04-18T14:59:22.395Z,94632.53
2024-04-18T15:02:08.952Z,94629.28
2024-04-18T15:05:20.330Z,94632.06
2024-04-18T15:08:18.840Z,94650.38
2024-04-18T15:11:13.785Z,94648.66
2024-04-18T15:14:20.215Z,94658.00
2024-04-18T15:17:12.096Z,94658.63
2024-04-18T15:19:58.631Z,94661.97
2024-04-18T15:23:21.352Z,94655.16
2024-04-18T15:26:15.242Z,94661.72
2024-04-18T15:29:02.484Z,94668.84
2024-04-18T15:32:09.301Z,94672.03
2024-04-18T15:35:06.018Z,94672.84
2024-04-18T15:37:55.337Z,94677.50
2024-04-18T15:40:50.764Z,94691.19
2024-04-18T15:43:38.540Z,94682.81
2024-04-18T15:46:25.285Z,94703.91
2024-04-18T15:49:26.109Z,94692.81
2024-04-18T15:52:15.602Z,94697.38
2024-04-18T15:55:15.923Z,94700.38
2024-04-18T15:58:15.410Z,94703.78
2024-04-18T16:01:01.994Z,94706.31
2024-04-18T16:03:51.818Z,94709.72
2024-04-18T16:06:49.643Z,94712.25
2024-04-18T16:10:00.978Z,94725.31
2024-04-18T16:12:48.918Z,94728.44
2024-04-18T16:20:30.570Z,94755.81
2024-04-18T16:24:48.465Z,94752.84
2024-04-18T16:27:37.280Z,94770.03
2024-04-18T16:30:26.543Z,94781.09
2024-04-18T16:33:13.118Z,94790.97
2024-04-18T16:36:07.210Z,94795.28
2024-04-18T16:40:19.424Z,94812.72
2024-04-18T16:43:18.043Z,94810.28
2024-04-18T16:46:40.255Z,94817.03
2024-04-18T16:49:26.497Z,94834.03
2024-04-18T16:52:19.415Z,94834.59
2024-04-18T16:55:29.088Z,94841.88
2024-04-18T16:58:35.603Z,94841.88
2024-04-18T17:01:22.764Z,94852.66
2024-04-18T17:04:09.318Z,94850.81
2024-04-18T17:06:56.838Z,94846.88
2024-04-18T17:09:43.529Z,94866.38
2024-04-18T17:12:35.309Z,94861.47
2024-04-18T17:15:40.521Z,94862.41
2024-04-18T17:18:28.077Z,94862.13
2024-04-18T17:21:16.884Z,94859.22
2024-04-18T17:24:04.039Z,94867.53
2024-04-18T17:26:50.569Z,94875.47
2024-04-18T17:29:37.527Z,94881.25
2024-04-18T17:32:25.004Z,94886.31
2024-04-18T17:35:47.750Z,94889.81
2024-04-18T17:38:34.351Z,94893.66
2024-04-18T17:41:20.725Z,94890.91
2024-04-18T17:44:14.729Z,94901.41
2024-04-18T17:47:13.823Z,94895.19
2024-04-18T17:50:01.382Z,94906.72
2024-04-18T17:52:47.729Z,94908.31
2024-04-18T17:55:39.411Z,94911.28
2024-04-18T17:58:26.050Z,94909.28
2024-04-18T18:01:21.158Z,94912.91
2024-04-18T18:04:32.851Z,94929.44
2024-04-18T18:07:27.763Z,94924.00
2024-04-18T18:10:14.451Z,94934.59
2024-04-18T18:18:01.095Z,94942.03
2024-04-18T18:20:47.503Z,94946.88
2024-04-18T18:23:33.741Z,94948.56
2024-04-18T18:26:20.462Z,94960.41
2024-04-18T18:29:09.366Z,94957.34
2024-04-18T18:32:24.972Z,94962.13
2024-04-18T18:35:12.027Z,94962.97
2024-04-18T18:37:58.401Z,94970.47
2024-04-18T18:40:45.715Z,94967.75
2024-04-18T18:43:44.068Z,94975.91
2024-04-18T18:46:30.416Z,94981.00
2024-04-18T18:49:35.471Z,94988.72
2024-04-18T18:52:22.186Z,94984.75
2024-04-18T18:55:08.473Z,94983.19
2024-04-18T18:57:56.114Z,94990.97
2024-04-18T19:00:42.902Z,94979.91
2024-04-18T19:03:30.682Z,95002.59
2024-04-18T19:06:33.214Z,95009.50
2024-04-18T19:09:19.943Z,95003.78
2024-04-18T19:12:08.405Z,94999.50
2024-04-18T19:14:55.153Z,94995.56
2024-04-18T19:17:47.983Z,95000.66
2024-04-18T19:20:34.323Z,95006.09
2024-04-18T19:23:22.379Z,95011.09
2024-04-18T19:26:13.126Z,94993.84
2024-04-18T19:28:59.512Z,94997.03
2024-04-18T19:31:45.878Z,95000.88
2024-04-18T19:34:32.531Z,95002.81
2024-04-18T19:37:18.999Z,94993.84
2024-04-18T19:40:05.593Z,94998.84
2024-04-18T19:42:51.908Z,94998.50
2024-04-18T19:45:38.508Z,95003.16
2024-04-18T19:48:25.287Z,95006.31
2024-04-18T19:51:11.644Z,95011.75
2024-04-18T19:53:57.859Z,95007.72
2024-04-18T19:56:45.799Z,95025.72
2024-04-18T19:59:32.593Z,95015.88
2024-04-18T20:02:18.855Z,95016.56
2024-04-18T20:05:07.258Z,95029.38
2024-04-18T20:07:53.783Z,95022.56
2024-04-18T20:10:41.144Z,95018.00
2024-04-18T20:13:27.868Z,95023.19
2024-04-18T20:16:15.520Z,95032.50
2024-04-18T20:19:02.148Z,95030.47
2024-04-18T20:21:50.258Z,95030.34
2024-04-18T20:24:36.582Z,95035.47
2024-04-18T20:27:50.681Z,95035.66
2024-04-18T20:30:37.280Z,95042.34
2024-04-18T20:33:24.435Z,95043.13
2024-04-18T20:36:11.368Z,95046.97
2024-04-18T20:38:58.707Z,95045.41
2024-04-18T20:41:48.177Z,95048.09
2024-04-18T20:44:34.724Z,95040.63
2024-04-18T20:47:22.955Z,95048.34
2024-04-18T20:50:09.598Z,95057.66
2024-04-18T20:52:57.192Z,95049.72
2024-04-18T20:55:43.590Z,95056.72
2024-04-18T20:58:31.975Z,95052.75
2024-04-18T21:01:19.259Z,95050.28
2024-04-18T21:04:06.271Z,95049.50
2024-04-18T21:06:52.643Z,95047.47
2024-04-18T21:09:40.380Z,95057.88
2024-04-18T21:12:27.939Z,95062.41
2024-04-18T21:15:14.527Z,95055.59
2024-04-18T21:18:00.881Z,95062.16
2024-04-18T21:20:49.792Z,95061.97
2024-04-18T21:23:36.268Z,95054.94
2024-04-18T21:26:22.768Z,95058.78
2024-04-18T21:29:09.074Z,95058.78
2024-04-18T21:31:55.571Z,95057.19
2024-04-18T21:34:42.476Z,95063.41
2024-04-18T21:37:29.120Z,95065.81
2024-04-18T21:40:15.489Z,95065.81
2024-04-18T21:43:04.148Z,95072.50
2024-04-18T21:45:50.959Z,95075.75
2024-04-18T21:48:37.732Z,95078.13
2024-04-18T21:51:24.022Z,95077.25
2024-04-18T21:54:10.768Z,95087.31
2024-04-18T21:56:58.752Z,95080.75
2024-04-18T21:59:45.384Z,95091.16
2024-04-18T22:02:31.665Z,95092.75
2024-04-18T22:05:18.345Z,95087.97
2024-04-18T22:08:05.072Z,95095.00
2024-04-18T22:10:51.684Z,95100.75
2024-04-18T22:13:37.902Z,95087.75
2024-04-18T22:16:24.402Z,95099.38
2024-04-18T22:19:11.397Z,95097.69
2024-04-18T22:21:58.835Z,95097.91
2024-04-18T22:24:45.357Z,95103.78
2024-04-18T22:27:31.802Z,95104.81
2024-04-18T22:30:18.393Z,95104.22
2024-04-18T22:33:04.760Z,95102.41
2024-04-18T22:35:57.689Z,95108.03
2024-04-18T22:38:47.118Z,95109.28
2024-04-18T22:41:34.769Z,95101.00
2024-04-18T22:44:22.306Z,95103.72
2024-04-18T22:47:10.724Z,95093.56
2024-04-18T22:49:57.176Z,95094.22
2024-04-18T22:52:43.530Z,95092.63
2024-04-18T22:55:30.047Z,95107.47
2024-04-18T22:58:16.031Z,95109.72
2024-04-18T23:01:21.044Z,95089.22
2024-04-18T23:04:07.565Z,95095.75
2024-04-18T23:06:54.385Z,95090.25
2024-04-18T23:09:40.631Z,95091.59
2024-04-18T23:12:27.063Z,95108.78
2024-04-18T23:15:13.574Z,95101.78
2024-04-18T23:17:59.995Z,95099.53
2024-04-18T23:20:46.585Z,95099.53
2024-04-18T23:23:32.903Z,95104.94
2024-04-18T23:26:19.303Z,95100.06
2024-04-18T23:29:05.539Z,95095.88
2024-04-18T23:31:53.957Z,95099.75
2024-04-18T23:34:40.618Z,95097.69
2024-04-18T23:37:28.034Z,95094.50
2024-04-18T23:40:14.428Z,95092.91
2024-04-18T23:43:00.644Z,95087.50
2024-04-18T23:45:47.111Z,95085.44
2024-04-18T23:48:35.737Z,95072.03
2024-04-18T23:51:22.480Z,95074.53
2024-04-18T23:54:10.396Z,95083.81
2024-04-18T23:56:57.189Z,95071.09
2024-04-18T23:59:43.196Z,95075.88
